Time;durP1;ratioP1;P1;durP2;ratioP2;P2;SDS_P1;SDS_P2;PMS_P1;PMS_P2;Temp;Humidity;BMP_temperature;BMP_pressure;BME280_temperature;BME280_humidity;BME280_pressure;Samples;Min_cycle;Max_cycle;Signal;HPM_P1;HPM_P2
2022/10/19 00:00:47;;;;;;;3.78;1.88;;;;;;;9.73;75.48;98887.84;6230657;22;20024;-75
2022/10/19 00:03:12;;;;;;;3.00;1.77;;;;;;;9.74;75.58;98879.75;6227208;22;20019;-72
2022/10/19 00:05:37;;;;;;;2.10;1.90;;;;;;;9.76;75.86;98877.81;6229656;22;20015;-70
2022/10/19 00:08:01;;;;;;;4.32;2.20;;;;;;;9.75;75.81;98870.78;6228023;22;20175;-70
2022/10/19 00:10:26;;;;;;;2.60;2.03;;;;;;;9.79;75.54;98868.75;6239127;22;20043;-72
2022/10/19 00:12:51;;;;;;;1.60;1.50;;;;;;;9.79;76.16;98855.44;6239159;22;20019;-73
2022/10/19 00:15:15;;;;;;;1.98;1.63;;;;;;;9.79;75.56;98856.28;6233623;22;20076;-73
2022/10/19 00:17:42;;;;;;;1.35;1.02;;;;;;;9.77;75.67;98852.03;6233311;22;20351;-73
2022/10/19 00:20:07;;;;;;;2.88;1.80;;;;;;;9.78;75.69;98838.63;6235303;22;20046;-78
2022/10/19 00:22:31;;;;;;;3.97;1.55;;;;;;;9.79;75.76;98839.47;6235301;22;20071;-79
2022/10/19 00:24:56;;;;;;;2.13;1.38;;;;;;;9.79;75.77;98832.31;6231633;22;20043;-75
2022/10/19 00:27:21;;;;;;;2.63;1.95;;;;;;;9.78;75.80;98837.78;6206977;22;20439;-78
2022/10/19 00:29:45;;;;;;;1.48;1.17;;;;;;;9.78;75.33;98843.94;6207915;22;20026;-80
2022/10/19 00:32:10;;;;;;;2.13;1.27;;;;;;;9.74;75.03;98836.31;6236650;22;20024;-76
2022/10/19 00:34:35;;;;;;;3.70;2.53;;;;;;;9.73;75.18;98824.81;6234192;22;20476;-77
2022/10/19 00:36:59;;;;;;;1.25;1.15;;;;;;;9.73;74.78;98819.50;6234017;22;20019;-78
2022/10/19 00:39:24;;;;;;;2.30;1.60;;;;;;;9.74;74.95;98828.31;6231729;22;20019;-72
2022/10/19 00:41:49;;;;;;;1.52;1.42;;;;;;;9.73;75.07;98803.53;6204895;22;20054;-77
2022/10/19 00:44:14;;;;;;;2.40;1.13;;;;;;;9.73;75.02;98800.03;6229467;22;20351;-71
2022/10/19 00:46:41;;;;;;;2.28;1.45;;;;;;;9.71;75.53;98801.94;6229416;22;20086;-75
2022/10/19 00:49:14;;;;;;;2.00;1.33;;;;;;;9.71;75.89;98796.63;6227497;22;20015;-77
2022/10/19 00:51:43;;;;;;;2.92;1.52;;;;;;;9.69;76.00;98809.25;6230453;22;20012;-73
2022/10/19 00:54:10;;;;;;;1.65;1.00;;;;;;;9.66;75.96;98810.34;6229297;22;20016;-77
2022/10/19 00:56:39;;;;;;;5.47;2.60;;;;;;;9.65;75.71;98821.94;6230800;22;20182;-76
2022/10/19 00:59:05;;;;;;;1.73;1.27;;;;;;;9.61;75.44;98819.63;6203983;22;20033;-77
2022/10/19 01:01:31;;;;;;;1.98;1.17;;;;;;;9.55;74.97;98813.00;6231585;22;20024;-77
2022/10/19 01:03:56;;;;;;;1.30;1.20;;;;;;;9.56;75.21;98822.69;6253446;22;20022;-73
2022/10/19 01:06:22;;;;;;;1.10;0.90;;;;;;;9.58;75.39;98834.06;6255179;22;20007;-76
2022/10/19 01:08:47;;;;;;;1.30;1.05;;;;;;;9.57;74.79;98819.06;6253411;22;20011;-74
2022/10/19 01:11:29;;;;;;;2.65;1.33;;;;;;;9.62;75.61;98811.53;6250724;22;20015;-77
2022/10/19 01:14:03;;;;;;;2.17;1.15;;;;;;;9.64;75.93;98814.06;6233741;22;20016;-75
2022/10/19 01:16:45;;;;;;;1.75;1.65;;;;;;;9.72;75.46;98812.47;6205926;22;20149;-78
2022/10/19 01:19:44;;;;;;;1.05;0.95;;;;;;;9.74;75.16;98802.56;6230629;22;20028;-76
2022/10/19 01:22:40;;;;;;;1.13;0.90;;;;;;;9.75;75.09;98796.28;6227954;22;20023;-77
2022/10/19 01:25:22;;;;;;;2.28;1.65;;;;;;;9.77;74.95;98810.31;6229815;22;20023;-75
2022/10/19 01:28:22;;;;;;;1.52;1.42;;;;;;;9.76;74.53;98805.94;6203364;22;20011;-74
2022/10/19 01:30:58;;;;;;;1.10;1.00;;;;;;;9.77;74.35;98812.97;6209835;22;20022;-75
2022/10/19 01:33:49;;;;;;;1.27;0.93;;;;;;;9.76;74.16;98813.09;6241483;22;20011;-69
2022/10/19 01:36:38;;;;;;;1.92;1.58;;;;;;;9.82;74.40;98799.25;6211372;22;20748;-76
2022/10/19 01:39:23;;;;;;;1.38;1.08;;;;;;;9.73;74.40;98792.88;6228547;22;20020;-71
2022/10/19 01:42:01;;;;;;;2.47;1.80;;;;;;;9.72;74.25;98785.00;6242460;22;20022;-76
2022/10/19 01:44:38;;;;;;;4.18;1.70;;;;;;;9.69;74.46;98786.13;6231792;22;20019;-75
2022/10/19 01:47:09;;;;;;;2.58;1.75;;;;;;;9.65;74.96;98778.50;6230486;22;20023;-77
2022/10/19 01:49:55;;;;;;;5.13;1.70;;;;;;;9.62;74.99;98768.97;6244730;22;20026;-71
2022/10/19 01:52:22;;;;;;;2.05;1.65;;;;;;;9.62;74.80;98760.13;6249826;22;20077;-71
2022/10/19 01:54:51;;;;;;;1.58;1.48;;;;;;;9.62;74.56;98742.34;6244219;22;20022;-72
2022/10/19 01:57:22;;;;;;;2.13;1.40;;;;;;;9.61;75.41;98743.31;6231405;22;20023;-72
2022/10/19 01:59:48;;;;;;;1.42;1.30;;;;;;;9.57;75.89;98746.38;6230850;22;20102;-71
2022/10/19 02:02:15;;;;;;;2.40;1.83;;;;;;;9.54;76.08;98744.78;6232354;22;20019;-73
2022/10/19 02:04:41;;;;;;;1.52;1.40;;;;;;;9.54;76.35;98750.13;6203246;22;20042;-71
2022/10/19 02:07:08;;;;;;;1.92;1.35;;;;;;;9.54;75.99;98749.28;6231778;22;20019;-74
2022/10/19 02:09:33;;;;;;;2.80;1.60;;;;;;;9.56;76.00;98745.53;6203521;22;20450;-68
2022/10/19 02:12:02;;;;;;;2.33;1.30;;;;;;;9.58;76.01;98740.94;6230891;22;20517;-73
2022/10/19 02:14:33;;;;;;;2.38;0.98;;;;;;;9.60;76.00;98725.66;6230943;22;20548;-71
2022/10/19 02:17:20;;;;;;;2.42;1.08;;;;;;;9.63;75.80;98728.06;6230207;22;20020;-72
2022/10/19 02:19:44;;;;;;;1.05;0.98;;;;;;;9.65;75.57;98733.28;6246080;22;19999;-78
2022/10/19 02:22:10;;;;;;;1.10;1.05;;;;;;;9.67;75.08;98729.53;6236720;22;20024;-72
2022/10/19 02:24:35;;;;;;;1.00;1.00;;;;;;;9.67;75.19;98729.53;6230894;22;20016;-72
2022/10/19 02:27:03;;;;;;;7.28;5.25;;;;;;;9.67;75.41;98718.03;6228939;22;20098;-72
2022/10/19 02:29:28;;;;;;;4.45;2.47;;;;;;;9.71;75.70;98722.09;6178100;22;20061;-72
2022/10/19 02:31:53;;;;;;;6.22;3.13;;;;;;;9.71;75.73;98712.31;6230745;22;20015;-72
2022/10/19 02:34:18;;;;;;;2.60;1.10;;;;;;;9.70;75.66;98709.81;6230627;22;20019;-69
2022/10/19 02:36:42;;;;;;;3.55;1.85;;;;;;;9.69;75.32;98708.09;6230634;22;20016;-70
2022/10/19 02:39:08;;;;;;;2.38;1.25;;;;;;;9.71;75.07;98706.13;6228602;22;20023;-69
2022/10/19 02:41:46;;;;;;;1.27;1.15;;;;;;;9.75;75.77;98702.25;6230300;22;20023;-69
2022/10/19 02:44:19;;;;;;;2.92;2.13;;;;;;;9.75;75.79;98699.59;6230256;22;20523;-71
2022/10/19 02:47:05;;;;;;;1.30;1.30;;;;;;;9.73;75.28;98689.09;6230495;22;20015;-70
2022/10/19 02:49:33;;;;;;;1.75;1.60;;;;;;;9.72;74.78;98687.38;6229592;22;20024;-70
2022/10/19 02:52:00;;;;;;;1.92;1.58;;;;;;;9.70;75.33;98678.72;6226016;22;20008;-64
2022/10/19 02:54:25;;;;;;;1.70;1.50;;;;;;;9.71;75.53;98685.69;6228394;22;20015;-67
2022/10/19 02:56:50;;;;;;;1.65;1.55;;;;;;;9.72;75.61;98683.88;6230310;22;20073;-66
2022/10/19 02:59:14;;;;;;;1.50;1.40;;;;;;;9.74;76.03;98681.94;6227681;22;20467;-69
2022/10/19 03:01:39;;;;;;;1.38;1.27;;;;;;;9.74;75.77;98674.81;6225641;22;20020;-70
2022/10/19 03:04:03;;;;;;;2.00;1.40;;;;;;;9.74;75.92;98680.13;6229948;22;20069;-75
2022/10/19 03:06:29;;;;;;;2.00;1.63;;;;;;;9.75;75.86;98678.31;6230074;22;20073;-71
2022/10/19 03:08:54;;;;;;;2.42;2.22;;;;;;;9.74;75.51;98677.47;6229996;22;20015;-69
2022/10/19 03:11:19;;;;;;;1.90;1.70;;;;;;;9.75;75.18;98667.66;6229368;22;20023;-69
2022/10/19 03:13:43;;;;;;;2.50;1.52;;;;;;;9.73;75.52;98670.44;6229422;22;20015;-69
2022/10/19 03:16:10;;;;;;;1.48;1.35;;;;;;;9.75;75.71;98670.31;6229825;22;20011;-69
2022/10/19 03:18:35;;;;;;;2.17;1.67;;;;;;;9.75;75.49;98668.50;6230162;22;20023;-69
2022/10/19 03:21:08;;;;;;;2.70;1.58;;;;;;;9.80;75.38;98666.31;6229777;22;20030;-67
2022/10/19 03:23:33;;;;;;;2.88;1.73;;;;;;;9.77;75.58;98676.38;6229942;22;20068;-73
2022/10/19 03:25:57;;;;;;;2.35;1.85;;;;;;;9.79;75.51;98669.94;6229417;22;20027;-71
2022/10/19 03:28:22;;;;;;;2.05;1.60;;;;;;;9.78;75.76;98662.09;6227482;22;20018;-72
2022/10/19 03:30:47;;;;;;;2.50;2.08;;;;;;;9.78;75.62;98662.94;6229439;22;20114;-70
2022/10/19 03:33:11;;;;;;;4.50;1.98;;;;;;;9.78;75.92;98652.28;6227960;22;20081;-72
2022/10/19 03:35:36;;;;;;;1.80;1.70;;;;;;;9.78;75.79;98656.78;6229201;22;20347;-70
2022/10/19 03:38:00;;;;;;;3.90;2.28;;;;;;;9.76;75.81;98651.56;6202334;22;20467;-70
2022/10/19 03:40:25;;;;;;;4.65;2.22;;;;;;;9.75;76.02;98643.72;6229245;22;20025;-70
2022/10/19 03:42:50;;;;;;;3.67;2.42;;;;;;;9.72;75.61;98644.81;6227630;22;20055;-69
2022/10/19 03:45:14;;;;;;;1.88;1.52;;;;;;;9.71;75.22;98650.25;6227701;22;20024;-68
2022/10/19 03:47:39;;;;;;;2.50;2.00;;;;;;;9.66;74.37;98632.03;6227017;22;20034;-68
2022/10/19 03:50:04;;;;;;;1.25;1.25;;;;;;;9.63;73.96;98637.59;6229074;22;20012;-69
2022/10/19 03:52:29;;;;;;;1.13;1.02;;;;;;;9.57;73.86;98624.81;6229375;22;20340;-68
2022/10/19 03:54:54;;;;;;;1.63;1.42;;;;;;;9.55;73.47;98618.78;6230281;22;20015;-70
2022/10/19 03:57:18;;;;;;;1.65;0.95;;;;;;;9.52;72.90;98616.38;6229155;22;20085;-70
2022/10/19 03:59:43;;;;;;;1.20;1.08;;;;;;;9.48;73.03;98622.09;6229200;22;20015;-70
2022/10/19 04:02:07;;;;;;;2.00;1.73;;;;;;;9.43;73.25;98615.31;6229101;22;20392;-69
2022/10/19 04:04:32;;;;;;;1.27;1.15;;;;;;;9.40;73.52;98614.72;6229453;22;20019;-69
2022/10/19 04:06:56;;;;;;;7.05;4.63;;;;;;;9.37;73.16;98615.81;6227818;22;20349;-69
2022/10/19 04:09:22;;;;;;;7.03;2.85;;;;;;;9.37;73.36;98609.66;6228955;22;20011;-69
2022/10/19 04:11:47;;;;;;;2.08;1.65;;;;;;;9.35;73.48;98604.47;6229170;22;20021;-69
2022/10/19 04:14:12;;;;;;;3.67;1.98;;;;;;;9.34;73.10;98596.63;6229375;22;20019;-71
2022/10/19 04:16:37;;;;;;;4.07;2.20;;;;;;;9.33;73.39;98597.59;6237832;22;20016;-70
2022/10/19 04:19:02;;;;;;;2.63;1.70;;;;;;;9.34;73.54;98594.81;6230092;22;20114;-69
2022/10/19 04:21:38;;;;;;;1.90;1.45;;;;;;;9.39;73.69;98586.44;6231183;22;20343;-69
2022/10/19 04:24:06;;;;;;;2.53;1.30;;;;;;;9.35;73.20;98585.00;6229643;22;20069;-70
2022/10/19 04:26:32;;;;;;;4.13;1.77;;;;;;;9.38;73.25;98587.41;6229628;22;20454;-70
2022/10/19 04:28:57;;;;;;;4.45;2.40;;;;;;;9.36;72.94;98582.22;6229196;22;20057;-70
2022/10/19 04:31:22;;;;;;;7.90;5.57;;;;;;;9.36;73.29;98576.91;6228637;22;20312;-71
2022/10/19 04:33:46;;;;;;;8.00;3.40;;;;;;;9.34;73.70;98581.50;6227666;22;20433;-70
2022/10/19 04:36:11;;;;;;;5.28;3.22;;;;;;;9.36;73.30;98589.38;6227546;22;20038;-70
2022/10/19 04:38:37;;;;;;;2.95;2.38;;;;;;;9.38;73.56;98590.06;6228471;22;20073;-70
2022/10/19 04:41:07;;;;;;;3.85;2.35;;;;;;;9.38;73.63;98577.59;6229193;22;20023;-70
2022/10/19 04:43:32;;;;;;;5.07;2.63;;;;;;;9.38;73.28;98568.78;6228263;22;20069;-71
2022/10/19 04:46:05;;;;;;;3.78;2.65;;;;;;;9.40;72.98;98574.81;6228491;22;20015;-70
2022/10/19 04:48:29;;;;;;;2.83;2.53;;;;;;;9.39;72.95;98576.63;6227625;22;20027;-70
2022/10/19 04:50:54;;;;;;;4.45;2.83;;;;;;;9.38;73.18;98577.59;6229995;22;20075;-72
2022/10/19 04:53:19;;;;;;;2.80;2.10;;;;;;;9.41;73.12;98573.84;6228569;22;20451;-72
2022/10/19 04:55:44;;;;;;;7.50;2.60;;;;;;;9.43;73.75;98566.59;6228466;22;20434;-70
2022/10/19 04:58:09;;;;;;;6.57;3.25;;;;;;;9.46;73.72;98564.53;6228829;22;20103;-71
2022/10/19 05:00:34;;;;;;;2.75;2.50;;;;;;;9.47;73.18;98557.41;6228297;22;20047;-69
2022/10/19 05:02:58;;;;;;;5.07;2.60;;;;;;;9.51;73.20;98561.47;6228583;22;20351;-70
2022/10/19 05:05:24;;;;;;;13.77;3.53;;;;;;;9.52;73.58;98562.31;6227972;22;20089;-70
2022/10/19 05:07:49;;;;;;;2.45;2.25;;;;;;;9.50;73.23;98559.78;6228653;22;20455;-69
2022/10/19 05:10:13;;;;;;;3.85;2.50;;;;;;;9.50;73.09;98565.09;6226568;22;20478;-70
2022/10/19 05:12:38;;;;;;;5.75;3.08;;;;;;;9.51;73.51;98564.13;6227359;22;20034;-70
2022/10/19 05:15:03;;;;;;;4.22;3.33;;;;;;;9.52;72.88;98554.31;6226831;22;20019;-70
2022/10/19 05:17:30;;;;;;;3.97;2.97;;;;;;;9.49;73.26;98552.75;6226895;22;20138;-70
2022/10/19 05:19:54;;;;;;;4.75;3.60;;;;;;;9.48;73.37;98554.56;6226946;22;20055;-70
2022/10/19 05:22:19;;;;;;;4.30;3.42;;;;;;;9.48;73.63;98551.91;6226947;22;20019;-71
2022/10/19 05:24:44;;;;;;;5.50;4.40;;;;;;;9.46;73.59;98559.22;6227422;22;20077;-69
2022/10/19 05:27:08;;;;;;;5.60;4.63;;;;;;;9.45;73.94;98554.84;6201232;22;20347;-70
2022/10/19 05:29:33;;;;;;;6.07;3.75;;;;;;;9.44;73.91;98558.47;6228184;22;20405;-70
2022/10/19 05:31:57;;;;;;;5.53;3.85;;;;;;;9.48;73.61;98552.91;6228566;22;20020;-70
2022/10/19 05:34:22;;;;;;;5.63;3.70;;;;;;;9.48;73.90;98544.94;6201111;22;20026;-70
2022/10/19 05:36:46;;;;;;;5.80;3.95;;;;;;;9.50;74.26;98545.63;6228795;22;20557;-71
2022/10/19 05:39:14;;;;;;;6.85;4.40;;;;;;;9.52;73.87;98541.03;6226813;22;20307;-70
2022/10/19 05:41:40;;;;;;;6.30;4.68;;;;;;;9.50;73.63;98548.28;6229437;22;20047;-71
2022/10/19 05:44:05;;;;;;;6.53;4.45;;;;;;;9.49;74.23;98539.47;6228511;22;20023;-70
2022/10/19 05:46:31;;;;;;;10.85;7.60;;;;;;;9.49;73.95;98547.44;6227859;22;20077;-70
2022/10/19 05:48:57;;;;;;;10.68;6.18;;;;;;;9.49;74.07;98544.78;6226796;22;20026;-70
2022/10/19 05:51:23;;;;;;;12.43;6.00;;;;;;;9.48;74.44;98536.97;6229472;22;20050;-70
2022/10/19 05:53:48;;;;;;;8.48;5.80;;;;;;;9.48;74.66;98531.63;6228802;22;20444;-70
2022/10/19 05:56:16;;;;;;;8.60;6.22;;;;;;;9.50;74.05;98538.50;6229016;22;20069;-71
2022/10/19 05:58:41;;;;;;;10.73;6.95;;;;;;;9.47;74.14;98536.09;6228958;22;20019;-70
2022/10/19 06:01:07;;;;;;;9.00;6.88;;;;;;;9.45;73.96;98527.41;6228924;22;20015;-70
2022/10/19 06:03:31;;;;;;;10.55;6.22;;;;;;;9.43;74.42;98545.31;6230032;22;20041;-69
2022/10/19 06:05:56;;;;;;;11.23;7.88;;;;;;;9.48;73.49;98543.09;6230296;22;20031;-71
2022/10/19 06:08:23;;;;;;;12.95;8.30;;;;;;;9.37;74.10;98551.13;6230869;22;20354;-70
2022/10/19 06:10:48;;;;;;;15.80;8.63;;;;;;;9.34;73.84;98543.44;6228823;22;20035;-70
2022/10/19 06:13:14;;;;;;;13.70;7.85;;;;;;;9.26;74.68;98535.22;6231796;22;20130;-70
2022/10/19 06:15:39;;;;;;;17.10;9.80;;;;;;;9.24;74.35;98539.84;6232888;22;20462;-69
2022/10/19 06:18:08;;;;;;;13.18;8.77;;;;;;;9.24;74.34;98546.03;6230727;22;20098;-69
2022/10/19 06:20:37;;;;;;;14.00;9.07;;;;;;;9.29;74.79;98527.00;6230216;22;20020;-69
2022/10/19 06:23:04;;;;;;;17.13;10.88;;;;;;;9.15;74.51;98527.31;6230599;22;20725;-68
2022/10/19 06:25:29;;;;;;;18.85;10.35;;;;;;;9.07;74.71;98528.78;6230258;22;20020;-68
2022/10/19 06:27:54;;;;;;;21.13;10.50;;;;;;;9.02;74.46;98530.16;6230632;22;20062;-70
2022/10/19 06:30:18;;;;;;;20.67;11.82;;;;;;;8.99;74.74;98541.03;6229085;22;20011;-70
2022/10/19 06:32:43;;;;;;;19.27;11.73;;;;;;;8.97;74.55;98527.03;6244375;22;20088;-69
2022/10/19 06:35:07;;;;;;;19.48;12.35;;;;;;;9.07;74.14;98526.13;6230469;22;20019;-71
2022/10/19 06:37:32;;;;;;;22.90;12.57;;;;;;;9.01;74.29;98534.63;6230275;22;20023;-71
2022/10/19 06:39:57;;;;;;;20.00;13.38;;;;;;;8.96;73.90;98531.50;6230273;22;20431;-70
2022/10/19 06:42:21;;;;;;;22.63;13.95;;;;;;;8.83;74.68;98529.97;6230459;22;20016;-70
2022/10/19 06:44:46;;;;;;;28.02;13.15;;;;;;;8.76;75.02;98529.63;6228737;22;20054;-70
2022/10/19 06:47:10;;;;;;;19.48;13.55;;;;;;;8.74;75.41;98528.91;6229839;22;20023;-70
2022/10/19 06:49:36;;;;;;;23.02;13.57;;;;;;;8.73;75.19;98525.41;6229228;22;20015;-71
2022/10/19 06:52:01;;;;;;;22.27;12.63;;;;;;;8.79;75.93;98528.56;6228156;22;20463;-71
2022/10/19 06:54:25;;;;;;;21.05;13.82;;;;;;;8.81;75.80;98529.25;6229663;22;20027;-71
2022/10/19 06:56:50;;;;;;;21.15;14.40;;;;;;;8.85;75.79;98530.69;6229620;22;20011;-71
2022/10/19 06:59:16;;;;;;;20.13;14.15;;;;;;;8.85;75.38;98531.53;6227945;22;20150;-68
2022/10/19 07:01:41;;;;;;;18.98;13.10;;;;;;;8.81;75.71;98529.25;6229501;22;20020;-68
2022/10/19 07:04:05;;;;;;;17.92;13.43;;;;;;;8.82;75.94;98528.28;6227800;22;20019;-70
2022/10/19 07:06:30;;;;;;;19.20;14.10;;;;;;;8.85;75.36;98528.03;6227704;22;20114;-69
2022/10/19 07:08:55;;;;;;;21.70;13.82;;;;;;;8.81;74.87;98522.13;6229660;22;20019;-70
2022/10/19 07:11:21;;;;;;;24.83;14.45;;;;;;;8.67;75.30;98520.63;6229718;22;20106;-69
2022/10/19 07:13:45;;;;;;;21.90;14.10;;;;;;;8.52;76.13;98523.66;6230030;22;20047;-70
2022/10/19 07:16:13;;;;;;;22.63;12.38;;;;;;;8.44;76.55;98513.66;6229206;22;20015;-70
2022/10/19 07:18:39;;;;;;;18.08;12.38;;;;;;;8.45;76.44;98522.47;6230285;22;20451;-69
2022/10/19 07:21:06;;;;;;;20.58;13.65;;;;;;;8.35;77.42;98509.09;6229286;22;20022;-71
2022/10/19 07:23:33;;;;;;;18.02;13.40;;;;;;;8.35;77.86;98515.22;6227690;22;20545;-70
2022/10/19 07:26:00;;;;;;;15.18;10.95;;;;;;;8.36;78.64;98516.06;6229379;22;20065;-70
2022/10/19 07:28:26;;;;;;;19.85;12.73;;;;;;;8.40;78.64;98514.03;6229897;22;20467;-70
2022/10/19 07:30:50;;;;;;;17.30;11.23;;;;;;;8.42;78.82;98510.28;6230005;22;20403;-70
2022/10/19 07:33:15;;;;;;;19.58;11.75;;;;;;;8.51;78.20;98506.03;6229487;22;20405;-71
2022/10/19 07:35:39;;;;;;;17.38;13.23;;;;;;;8.46;78.26;98516.19;6229752;22;20019;-70
2022/10/19 07:38:04;;;;;;;21.17;13.65;;;;;;;8.45;78.63;98517.16;6227823;22;20016;-70
2022/10/19 07:40:29;;;;;;;16.38;12.23;;;;;;;8.45;78.66;98510.03;6229413;22;20022;-70
2022/10/19 07:42:53;;;;;;;18.17;13.45;;;;;;;8.49;78.35;98515.94;6227617;22;20022;-70
2022/10/19 07:45:18;;;;;;;17.90;11.82;;;;;;;8.48;78.70;98504.47;6229154;22;20069;-71
2022/10/19 07:47:43;;;;;;;16.42;12.15;;;;;;;8.45;78.52;98503.88;6230005;22;20023;-71
2022/10/19 07:50:08;;;;;;;18.77;12.70;;;;;;;8.43;78.72;98517.28;6229803;22;20178;-70
2022/10/19 07:52:32;;;;;;;15.57;12.27;;;;;;;8.39;79.07;98515.84;6229631;22;20020;-70
2022/10/19 07:54:57;;;;;;;19.83;12.43;;;;;;;8.36;79.29;98516.91;6227977;22;20019;-70
2022/10/19 07:57:22;;;;;;;19.15;13.20;;;;;;;8.32;78.82;98515.50;6229995;22;20442;-70
2022/10/19 07:59:46;;;;;;;16.92;11.82;;;;;;;8.26;79.04;98507.97;6229256;22;20015;-70
2022/10/19 08:02:15;;;;;;;21.83;13.25;;;;;;;8.26;79.38;98501.81;6227487;22;20019;-71
2022/10/19 08:04:40;;;;;;;17.33;12.70;;;;;;;8.27;79.54;98503.50;6235970;22;20023;-71
2022/10/19 08:07:04;;;;;;;15.50;11.88;;;;;;;8.24;80.25;98509.91;6233423;22;20012;-70
2022/10/19 08:09:29;;;;;;;24.52;12.30;;;;;;;8.25;79.98;98513.41;6232028;22;20506;-70
2022/10/19 08:11:53;;;;;;;19.58;11.38;;;;;;;8.24;80.20;98515.22;6227020;22;20075;-71
2022/10/19 08:14:18;;;;;;;17.48;11.90;;;;;;;8.21;79.89;98510.16;6229966;22;20016;-72
2022/10/19 08:16:43;;;;;;;16.00;12.38;;;;;;;8.16;80.31;98504.38;6228841;22;20015;-71
2022/10/19 08:19:10;;;;;;;17.52;11.77;;;;;;;8.18;80.50;98507.75;6228950;22;20068;-69
2022/10/19 08:21:36;;;;;;;18.92;10.70;;;;;;;8.11;80.34;98508.38;6229445;22;20042;-69
2022/10/19 08:24:00;;;;;;;16.27;10.52;;;;;;;8.15;79.86;98512.44;6227799;22;20102;-70
2022/10/19 08:26:30;;;;;;;14.88;10.77;;;;;;;8.11;79.93;98503.06;6229882;22;20096;-69
2022/10/19 08:28:59;;;;;;;17.20;11.30;;;;;;;8.15;79.88;98507.13;6228821;22;20019;-69
2022/10/19 08:31:24;;;;;;;16.38;10.73;;;;;;;8.05;80.33;98507.03;6230672;22;20069;-67
2022/10/19 08:33:50;;;;;;;10.85;8.00;;;;;;;8.02;80.04;98512.56;6230049;22;20023;-69
2022/10/19 08:36:16;;;;;;;14.68;9.57;;;;;;;8.02;80.19;98508.09;6228083;22;20046;-69
2022/10/19 08:38:43;;;;;;;11.15;8.48;;;;;;;8.08;79.56;98498.81;6229702;22;20026;-70
2022/10/19 08:41:20;;;;;;;13.68;9.15;;;;;;;8.03;80.04;98501.00;6229044;22;20019;-69
2022/10/19 08:44:17;;;;;;;11.63;7.95;;;;;;;8.03;80.31;98503.66;6229728;22;20474;-69
2022/10/19 08:46:50;;;;;;;14.05;9.77;;;;;;;8.05;79.98;98508.84;6081269;23;20028;-70
2022/10/19 08:49:20;;;;;;;13.50;9.13;;;;;;;7.92;80.31;98501.00;6067136;23;20017;-69
2022/10/19 08:51:51;;;;;;;13.00;8.88;;;;;;;7.92;80.18;98509.81;6058415;23;20014;-71
2022/10/19 08:54:18;;;;;;;10.10;7.80;;;;;;;7.89;80.53;98504.75;6106597;23;20021;-70
2022/10/19 08:56:52;;;;;;;9.82;7.22;;;;;;;7.93;81.12;98498.22;6106638;23;20020;-70
2022/10/19 08:59:35;;;;;;;10.40;7.22;;;;;;;7.98;81.23;98498.72;6106822;23;20160;-70
2022/10/19 09:02:18;;;;;;;11.30;7.70;;;;;;;8.12;81.00;98502.09;6106591;23;20088;-70
2022/10/19 09:04:53;;;;;;;10.18;7.20;;;;;;;8.18;80.65;98513.06;6106829;23;20024;-70
2022/10/19 09:07:33;;;;;;;9.25;6.90;;;;;;;8.23;80.24;98516.19;6106385;23;20028;-70
2022/10/19 09:10:13;;;;;;;9.32;6.68;;;;;;;8.34;80.22;98510.06;6106902;23;20211;-71
2022/10/19 09:12:50;;;;;;;9.68;6.85;;;;;;;8.40;80.03;98514.88;6106535;23;20020;-70
2022/10/19 09:15:19;;;;;;;11.88;7.25;;;;;;;8.45;79.55;98510.03;6106553;23;20021;-71
2022/10/19 09:17:43;;;;;;;9.48;6.22;;;;;;;8.49;79.85;98508.81;6082047;23;20020;-68
2022/10/19 09:20:24;;;;;;;7.65;5.78;;;;;;;8.56;79.77;98517.13;6107728;23;20018;-72
2022/10/19 09:23:03;;;;;;;8.38;6.22;;;;;;;8.60;79.32;98515.91;6138504;22;20022;-71
2022/10/19 09:25:29;;;;;;;8.63;6.43;;;;;;;8.56;79.40;98520.66;6229914;22;20351;-71
2022/10/19 09:28:32;;;;;;;8.05;5.32;;;;;;;8.63;79.03;98511.19;6229804;22;20020;-71
2022/10/19 09:30:58;;;;;;;7.43;5.28;;;;;;;8.56;78.79;98519.78;6220575;22;20543;-71
2022/10/19 09:33:29;;;;;;;9.35;4.85;;;;;;;8.55;78.86;98515.44;6231418;22;20022;-72
2022/10/19 09:35:56;;;;;;;7.32;4.85;;;;;;;8.57;78.68;98518.84;6231095;22;20047;-72
2022/10/19 09:38:24;;;;;;;7.80;5.40;;;;;;;8.53;78.87;98518.22;6231254;22;20011;-71
2022/10/19 09:40:49;;;;;;;11.13;5.38;;;;;;;8.53;79.01;98514.72;6203837;22;20448;-71
2022/10/19 09:43:20;;;;;;;11.38;5.32;;;;;;;8.56;79.02;98517.13;6229280;22;20021;-72
2022/10/19 09:46:03;;;;;;;10.07;5.40;;;;;;;8.63;79.06;98513.00;6231581;22;20141;-72
2022/10/19 09:48:50;;;;;;;9.38;5.43;;;;;;;8.66;79.28;98520.72;6230958;22;20047;-72
2022/10/19 09:51:15;;;;;;;7.32;5.78;;;;;;;8.64;79.19;98517.34;6230900;22;20022;-70
2022/10/19 09:53:49;;;;;;;8.57;6.45;;;;;;;8.66;79.28;98526.06;6231496;22;20035;-71
2022/10/19 09:56:37;;;;;;;14.25;7.45;;;;;;;8.72;78.97;98517.56;6229226;22;20450;-70
2022/10/19 09:59:01;;;;;;;10.32;6.55;;;;;;;8.68;79.20;98510.84;6230016;22;20565;-71
2022/10/19 10:01:32;;;;;;;8.55;6.15;;;;;;;8.68;79.67;98522.31;6229920;22;20066;-70
2022/10/19 10:04:07;;;;;;;12.10;7.65;;;;;;;8.69;79.48;98512.53;6229350;22;20117;-71
2022/10/19 10:06:34;;;;;;;10.55;7.97;;;;;;;8.59;79.59;98519.53;6233771;22;20016;-71
2022/10/19 10:08:59;;;;;;;12.10;9.90;;;;;;;8.54;79.78;98525.22;6230551;22;20011;-71
2022/10/19 10:11:31;;;;;;;10.77;8.50;;;;;;;8.53;79.98;98517.38;6230544;22;20034;-72
2022/10/19 10:13:59;;;;;;;12.02;8.85;;;;;;;8.44;80.15;98518.97;6229232;22;20435;-72
2022/10/19 10:16:29;;;;;;;11.10;8.82;;;;;;;8.40;80.38;98522.84;6231168;22;20407;-71
2022/10/19 10:18:57;;;;;;;10.98;8.57;;;;;;;8.34;80.54;98526.84;6228239;22;20031;-71
2022/10/19 10:21:32;;;;;;;12.25;9.07;;;;;;;8.27;80.57;98528.25;6229130;22;20043;-69
2022/10/19 10:24:17;;;;;;;13.50;8.93;;;;;;;8.27;80.96;98527.41;6202425;22;20016;-70
2022/10/19 10:26:45;;;;;;;11.48;8.45;;;;;;;8.16;80.66;98525.59;6228140;22;20043;-70
2022/10/19 10:29:19;;;;;;;12.55;8.50;;;;;;;8.15;80.91;98523.06;6231333;22;20520;-70
2022/10/19 10:31:46;;;;;;;14.52;8.68;;;;;;;8.07;81.21;98522.84;6227432;22;20065;-70
2022/10/19 10:34:25;;;;;;;11.63;8.30;;;;;;;8.01;81.57;98525.00;6229653;22;20443;-72
2022/10/19 10:36:53;;;;;;;16.27;8.75;;;;;;;7.99;81.59;98534.91;6228932;22;20381;-70
2022/10/19 10:39:19;;;;;;;10.40;7.43;;;;;;;7.95;81.99;98537.91;6229496;22;20471;-71
2022/10/19 10:41:46;;;;;;;13.98;8.40;;;;;;;7.95;81.53;98535.25;6227264;22;20012;-71
2022/10/19 10:44:19;;;;;;;10.45;7.53;;;;;;;7.94;81.75;98541.53;6230167;22;20024;-72
2022/10/19 10:46:56;;;;;;;11.60;7.65;;;;;;;7.88;81.95;98532.25;6229092;22;20015;-68
2022/10/19 10:50:00;;;;;;;12.75;6.85;;;;;;;7.85;81.84;98529.00;6201552;22;20024;-69
2022/10/19 10:52:28;;;;;;;11.45;7.15;;;;;;;7.78;81.90;98522.47;6206854;22;20015;-68
2022/10/19 10:55:01;;;;;;;6.50;5.75;;;;;;;7.78;82.22;98520.69;6230141;22;20014;-68
2022/10/19 10:57:34;;;;;;;10.32;5.63;;;;;;;7.85;82.25;98513.91;6230006;22;20066;-69
2022/10/19 11:00:14;;;;;;;13.00;4.97;;;;;;;7.93;81.81;98519.47;6228216;22;20543;-68
2022/10/19 11:02:39;;;;;;;8.60;5.20;;;;;;;7.91;82.03;98515.22;6229353;22;20018;-67
2022/10/19 11:05:13;;;;;;;6.70;4.53;;;;;;;7.97;82.29;98512.09;6229941;22;20015;-68
2022/10/19 11:07:45;;;;;;;6.25;4.43;;;;;;;7.99;82.32;98505.72;6230410;22;20090;-67
2022/10/19 11:10:16;;;;;;;7.03;5.18;;;;;;;8.11;81.99;98508.38;6228859;22;20021;-67
2022/10/19 11:12:55;;;;;;;7.18;5.25;;;;;;;8.22;81.41;98503.91;6233048;22;20016;-68
2022/10/19 11:15:26;;;;;;;7.30;5.20;;;;;;;8.20;80.77;98511.13;6232708;22;20051;-67
2022/10/19 11:18:13;;;;;;;6.72;4.65;;;;;;;8.21;81.46;98518.13;6229644;22;20027;-68
2022/10/19 11:21:06;;;;;;;9.13;5.00;;;;;;;8.20;81.40;98515.59;6230983;22;20468;-67
2022/10/19 11:24:10;;;;;;;7.82;5.40;;;;;;;8.29;81.03;98515.69;6228130;22;20023;-68
2022/10/19 11:26:37;;;;;;;8.10;5.50;;;;;;;8.24;80.91;98503.78;6241292;22;20016;-71
2022/10/19 11:29:39;;;;;;;8.23;5.68;;;;;;;8.27;81.56;98493.72;6231230;22;20046;-69
2022/10/19 11:32:16;;;;;;;10.35;5.70;;;;;;;8.32;81.63;98499.56;6234716;22;20046;-72
2022/10/19 11:35:09;;;;;;;7.60;5.30;;;;;;;8.39;81.82;98486.63;6230294;22;20016;-69
2022/10/19 11:38:01;;;;;;;8.30;5.45;;;;;;;8.54;81.54;98485.38;6230802;22;20019;-70
2022/10/19 11:41:10;;;;;;;9.70;4.65;;;;;;;8.63;81.81;98473.16;6230475;22;20020;-68
2022/10/19 11:43:57;;;;;;;8.90;5.00;;;;;;;8.65;81.84;98476.53;6107921;23;20104;-68
2022/10/19 11:46:32;;;;;;;6.03;4.90;;;;;;;8.68;80.98;98482.44;6034427;23;20022;-67